This is the latest recevied weather packets stored in our database for station/object KE2HEH. If no packets are shown the sender has not sent any weather packets the latest 10 day(s).
| Time | Temp. | Humidity | Pressure | Rain* | Wind** | Luminosity | Snow |
|---|---|---|---|---|---|---|---|
| 1777651507 | 13.89° C | 49% | 1013.6 hPa | 0 mm | - | 576 W/m² | - |
| 1777651204 | 15° C | 40% | 1013.9 hPa | 0 mm | - | 586 W/m² | - |
| 1777650900 | 14.44° C | 38% | 1013.8 hPa | 0 mm | - | 582 W/m² | - |
| 1777650597 | 14.44° C | 39% | 1013.9 hPa | 0 mm | - | 585 W/m² | - |
| 1777650295 | 14.44° C | 40% | 1013.9 hPa | 0 mm | - | 596 W/m² | - |
| 1777649991 | 13.89° C | 40% | 1013.8 hPa | 0 mm | - | 612 W/m² | - |
| 1777649689 | 13.89° C | 39% | 1014 hPa | 0 mm | - | 614 W/m² | - |
| 1777649384 | 13.89° C | 39% | 1013.9 hPa | 0 mm | - | 629 W/m² | - |
| 1777649082 | 13.89° C | 40% | 1013.9 hPa | 0 mm | - | 638 W/m² | - |
| 1777648779 | 13.89° C | 40% | 1013.9 hPa | 0 mm | - | 624 W/m² | - |
| 1777648477 | 13.89° C | 39% | 1013.9 hPa | 0 mm | - | 652 W/m² | - |
| 1777648173 | 13.89° C | 39% | 1014 hPa | 0 mm | - | 639 W/m² | - |
| 1777647868 | 13.33° C | 42% | 1014 hPa | 0 mm | - | 635 W/m² | - |
| 1777647564 | 13.33° C | 42% | 1013.9 hPa | 0 mm | - | 655 W/m² | - |
| 1777647261 | 13.33° C | 43% | 1014.1 hPa | 0 mm | - | 648 W/m² | - |
| 1777646959 | 12.78° C | 43% | 1014 hPa | 0 mm | - | 658 W/m² | - |
| 1777646655 | 12.78° C | 44% | 1013.8 hPa | 0 mm | - | 649 W/m² | - |
| 1777646350 | 12.78° C | 44% | 1013.7 hPa | 0 mm | - | 658 W/m² | - |
| 1777646047 | 12.22° C | 47% | 1013.8 hPa | 0 mm | - | 650 W/m² | - |
| 1777645744 | 12.22° C | 47% | 1013.8 hPa | 0 mm | - | 639 W/m² | - |
| 1777645441 | 12.22° C | 46% | 1014.1 hPa | 0 mm | - | 623 W/m² | - |
| 1777645137 | 12.22° C | 47% | 1013.9 hPa | 0 mm | - | 648 W/m² | - |
| 1777644833 | 12.22° C | 48% | 1014 hPa | 0 mm | - | 637 W/m² | - |
| 1777644531 | 12.22° C | 48% | 1014 hPa | 0 mm | - | 639 W/m² | - |
| 1777644227 | 11.67° C | 49% | 1013.9 hPa | 0 mm | - | 632 W/m² | - |
* Rain latest hour (hover to see other rain measurements)
** Current wind speed in m/s (hover to see current wind gust speed)